Lowlands Phoenix — 9V5327 — position and weather

sailwx.info

Track history (hours):
 
Tides and Currents Weather Stations Pressure Air Temp Water Temp Dewpoint Dewpoint Depression Visibility Wind Speed Wind Dir Waves Ship Positions

Lowlands Phoenix

Last reported at 2017-Oct-19 12:11 UTC. Time now 2017-Oct-19 23:48 UTC.
Position N 27°55' W 016°26'.

Length 289 m; draft 8.9 m.

Type: Cargo ship. MMSI: 563014200.

Date/timePositionNaut miles runAvg speedWind from/ knotsBaromVisibWave heightAir tempDewpointWater temp
2017-Oct-19 12:11N 27°55' W 016°26'411.9
2017-Oct-19 11:52N 27°57' W 016°23'411.9
2017-Oct-19 11:30N 28°01' W 016°20'612.1
2017-Oct-19 10:59N 28°05' W 016°16'712.4
2017-Oct-19 10:24N 28°11' W 016°10'512.3
2017-Oct-19 10:00N 28°15' W 016°07'612.6
2017-Oct-19 09:30N 28°20' W 016°02'612.6
2017-Oct-19 09:00N 28°24' W 015°57'612.5
2017-Oct-19 08:30N 28°29' W 015°53'612.2
2017-Oct-19 08:00N 28°34' W 015°48'612.1
2017-Oct-19 07:30N 28°38' W 015°44'612.2
2017-Oct-19 07:00N 28°42' W 015°38'612.4
2017-Oct-19 06:30N 28°46' W 015°33'612.4
2017-Oct-19 06:00N 28°51' W 015°28'612.4
2017-Oct-19 05:30N 28°55' W 015°23'612.4
2017-Oct-19 05:00N 28°59' W 015°18'612.4
2017-Oct-19 04:30N 29°03' W 015°12'56711.5
2017-Oct-17 03:02N 35°25' W 006°57'411.0
2017-Oct-17 02:41N 35°27' W 006°53'210.9
2017-Oct-17 02:30N 35°29' W 006°52'1010.9
2017-Oct-17 01:38N 35°35' W 006°43'110.8
2017-Oct-17 01:30N 35°36' W 006°42'2811.1
2017-Oct-16 22:58N 35°55' W 006°17'2011.9
2017-Oct-16 21:20N 35°58' W 005°53'413.4
2017-Oct-16 21:00N 35°58' W 005°47'713.4
2017-Oct-16 20:30N 35°58' W 005°39'612.2
2017-Oct-16 20:00N 35°59' W 005°32'611.1
2017-Oct-16 19:30N 36°01' W 005°25'5 9.9
2017-Oct-16 19:00N 36°04' W 005°20'3 6.0
2017-Oct-16 18:30N 36°06' W 005°22'0 0.2
2017-Oct-16 18:00N 36°06' W 005°22'0 0.3
2017-Oct-16 17:18N 36°06' W 005°22'0 0.1
2017-Oct-16 17:00N 36°06' W 005°22'0 0.1
2017-Oct-16 16:30N 36°06' W 005°22'0 0.0
2017-Oct-16 14:18N 36°06' W 005°22'0 0.0
2017-Oct-16 13:30N 36°06' W 005°22'0 0.1
2017-Oct-16 12:36N 36°06' W 005°22'0 0.1
2017-Oct-16 12:30N 36°06' W 005°22'0 0.1
2017-Oct-16 12:00N 36°06' W 005°22'0 0.1
2017-Oct-16 11:30N 36°06' W 005°22'0 0.1
2017-Oct-16 11:00N 36°06' W 005°22'0 0.0
2017-Oct-16 10:30N 36°06' W 005°22'0 0.1
2017-Oct-16 10:00N 36°06' W 005°22'0 0.0
2017-Oct-16 09:30N 36°06' W 005°22'0 0.5
2017-Oct-16 09:00N 36°06' W 005°22'2 3.5
2017-Oct-16 08:30N 36°06' W 005°20'4 7.1
2017-Oct-16 08:00N 36°07' W 005°15'1 0.7
2017-Oct-16 07:14N 36°07' W 005°15'1 2.5
2017-Oct-16 07:00N 36°07' W 005°15'5 9.1
2017-Oct-16 06:30N 36°02' W 005°15'4 8.3
2017-Oct-16 06:00N 35°59' W 005°12'1 1.2
2017-Oct-16 05:21N 35°60' W 005°11'0 0.6
2017-Oct-16 05:00N 35°60' W 005°11'0 0.5
2017-Oct-16 04:29N 35°60' W 005°11'0 0.7
2017-Oct-16 04:00N 36°00' W 005°11'0 0.8
2017-Oct-16 03:30N 36°00' W 005°10'1 1.2
2017-Oct-16 03:00N 36°01' W 005°10'1 1.5
2017-Oct-16 02:30N 36°02' W 005°10'1 1.4
2017-Oct-16 02:00N 36°02' W 005°10'1 1.2
2017-Oct-16 01:30N 36°03' W 005°10'1 1.2
2017-Oct-16 01:00N 36°03' W 005°10'1 1.2
2017-Oct-16 00:30N 36°04' W 005°10'1 1.3
2017-Oct-16 00:00N 36°05' W 005°10'1 1.1
2017-Oct-15 23:30N 36°05' W 005°09'0 1.0
2017-Oct-15 23:00N 36°05' W 005°09'0 1.0
2017-Oct-15 22:30N 36°06' W 005°08'0 0.9
2017-Oct-15 22:00N 36°06' W 005°08'0 0.7
2017-Oct-15 21:30N 36°06' W 005°07'0 0.4
2017-Oct-15 20:59N 36°06' W 005°07'0 0.1
2017-Oct-15 20:28N 36°06' W 005°07'0 0.1
2017-Oct-15 19:59N 36°06' W 005°07'0 0.3
2017-Oct-15 19:28N 36°06' W 005°07'0 0.6
2017-Oct-15 18:59N 36°06' W 005°07'1 0.7
2017-Oct-15 17:30N 36°06' W 005°05'2 0.5
2017-Oct-15 14:00N 36°08' W 005°06'2 3.8
2017-Oct-15 13:30N 36°08' W 005°08'3 5.4
2017-Oct-15 12:59N 36°09' W 005°05'16411.6
2017-Oct-14 22:49N 36°32' W 001°44'411.8
2017-Oct-14 22:30N 36°33' W 001°39'1212.3
2017-Oct-14 21:32N 36°37' W 001°25'012.7
2017-Oct-14 21:30N 36°37' W 001°25'612.6
2017-Oct-14 21:00N 36°39' W 001°17'612.5
2017-Oct-14 20:30N 36°41' W 001°10'612.4
2017-Oct-14 20:00N 36°43' W 001°02'612.6
2017-Oct-14 19:30N 36°45' W 000°55'612.5
2017-Oct-14 19:00N 36°47' W 000°48'612.4
2017-Oct-14 18:31N 36°48' W 000°40'612.3
2017-Oct-14 18:00N 36°50' W 000°33'612.3
2017-Oct-14 17:30N 36°52' W 000°25'612.6
2017-Oct-14 17:00N 36°53' W 000°18'612.5
2017-Oct-14 16:30N 36°55' W 000°10'612.5
2017-Oct-14 16:00N 36°56' W 000°03'612.4
2017-Oct-14 15:30N 36°58' E 000°05'612.5
2017-Oct-14 15:00N 36°60' E 000°12'612.7
2017-Oct-14 14:30N 37°02' E 000°20'612.7
2017-Oct-14 14:00N 37°04' E 000°27'612.7
2017-Oct-14 13:30N 37°07' E 000°34'612.6
2017-Oct-14 13:00N 37°09' E 000°42'912.7
2017-Oct-14 12:19N 37°11' E 000°52'2612.7
2017-Oct-14 10:15N 37°19' E 001°24'312.4
2017-Oct-14 09:59N 37°20' E 001°28'612.4
2017-Oct-14 09:29N 37°22' E 001°36'612.3
2017-Oct-14 09:00N 37°24' E 001°43'612.3
2017-Oct-14 08:30N 37°25' E 001°50'612.2
2017-Oct-14 08:00N 37°27' E 001°58'612.3
2017-Oct-14 07:30N 37°27' E 002°05'612.4
2017-Oct-14 07:00N 37°28' E 002°13'612.4
2017-Oct-14 06:30N 37°28' E 002°21'712.3
2017-Oct-14 05:58N 37°28' E 002°29'612.3
2017-Oct-14 05:27N 37°29' E 002°37'612.2
2017-Oct-14 05:00N 37°29' E 002°44'712.2
2017-Oct-14 04:25N 37°30' E 002°53'2512.1
2017-Oct-14 02:21N 37°32' E 003°24'512.3
2017-Oct-14 01:56N 37°32' E 003°31'712.2
2017-Oct-14 01:22N 37°33' E 003°40'512.2
2017-Oct-14 00:58N 37°33' E 003°46'612.1
2017-Oct-14 00:30N 37°34' E 003°53'612.1
2017-Oct-14 00:00N 37°34' E 004°00'612.2
2017-Oct-13 23:30N 37°34' E 004°08'612.2
2017-Oct-13 23:00N 37°35' E 004°16'611.9
2017-Oct-13 22:30N 37°35' E 004°23'612.0
2017-Oct-13 22:00N 37°36' E 004°31'1312.1
2017-Oct-13 20:57N 37°37' E 004°47'512.0
2017-Oct-13 20:30N 37°37' E 004°54'612.1
2017-Oct-13 20:00N 37°37' E 005°01'612.2
2017-Oct-13 19:30N 37°38' E 005°09'612.3
2017-Oct-13 19:00N 37°38' E 005°17'812.2
2017-Oct-13 18:19N 37°39' E 005°27'412.0
2017-Oct-13 18:00N 37°39' E 005°32'1612.1
2017-Oct-13 16:40N 37°40' E 005°52'212.3
2017-Oct-13 16:30N 37°40' E 005°55'1513.1
2017-Oct-13 15:20N 37°42' E 006°14'613.6
2017-Oct-13 14:52N 37°42' E 006°22'12512.0
2017-Oct-13 04:25N 37°51' E 008°60'611.6
2017-Oct-13 03:55N 37°49' E 009°07'511.6
2017-Oct-13 03:30N 37°48' E 009°13'911.7
2017-Oct-13 02:45N 37°46' E 009°24'411.8
2017-Oct-13 02:27N 37°45' E 009°28'20711.7
2017-Oct-12 08:49N 36°33' E 013°32'412.2
2017-Oct-12 08:30N 36°32' E 013°36'612.3
2017-Oct-12 07:59N 36°30' E 013°44'612.2
2017-Oct-12 07:30N 36°28' E 013°51'612.2
2017-Oct-12 07:00N 36°26' E 013°58'612.1
2017-Oct-12 06:30N 36°23' E 014°05'612.0
2017-Oct-12 06:00N 36°21' E 014°12'611.9
2017-Oct-12 05:30N 36°21' E 014°19'612.0
2017-Oct-12 05:00N 36°20' E 014°26'611.9
2017-Oct-12 04:30N 36°21' E 014°34'611.6
2017-Oct-12 04:00N 36°21' E 014°41'611.8
2017-Oct-12 03:30N 36°22' E 014°48'611.9
2017-Oct-12 03:00N 36°21' E 014°56'44811.1
2017-Oct-10 10:39N 37°28' E 024°09'212.3
2017-Oct-10 10:29N 37°29' E 024°10'612.3
2017-Oct-10 10:00N 37°35' E 024°12'911.9
2017-Oct-10 09:13N 37°43' E 024°19'312.0
2017-Oct-10 08:56N 37°46' E 024°21'13312.3
2017-Oct-09 22:07N 39°44' E 025°38'  
Track history (hours):
 
Tides and Currents Weather Stations Pressure Air Temp Water Temp Dewpoint Dewpoint Depression Visibility Wind Speed Wind Dir Waves Ship Positions

Lowlands Phoenix

Last reported at 2017-Oct-19 12:11 UTC. Time now 2017-Oct-19 23:48 UTC.
Position N 27°55' W 016°26'.

Length 289 m; draft 8.9 m.

Type: Cargo ship. MMSI: 563014200.

Date/timePositionNaut miles runAvg speedWind from/ knotsBaromVisibWave heightAir tempDewpointWater temp
2017-Oct-19 12:11N 27°55' W 016°26'411.9
2017-Oct-19 11:52N 27°57' W 016°23'411.9
2017-Oct-19 11:30N 28°01' W 016°20'612.1
2017-Oct-19 10:59N 28°05' W 016°16'712.4
2017-Oct-19 10:24N 28°11' W 016°10'512.3
2017-Oct-19 10:00N 28°15' W 016°07'612.6
2017-Oct-19 09:30N 28°20' W 016°02'612.6
2017-Oct-19 09:00N 28°24' W 015°57'612.5
2017-Oct-19 08:30N 28°29' W 015°53'612.2
2017-Oct-19 08:00N 28°34' W 015°48'612.1
2017-Oct-19 07:30N 28°38' W 015°44'612.2
2017-Oct-19 07:00N 28°42' W 015°38'612.4
2017-Oct-19 06:30N 28°46' W 015°33'612.4
2017-Oct-19 06:00N 28°51' W 015°28'612.4
2017-Oct-19 05:30N 28°55' W 015°23'612.4
2017-Oct-19 05:00N 28°59' W 015°18'612.4
2017-Oct-19 04:30N 29°03' W 015°12'56711.5
2017-Oct-17 03:02N 35°25' W 006°57'411.0
2017-Oct-17 02:41N 35°27' W 006°53'210.9
2017-Oct-17 02:30N 35°29' W 006°52'1010.9
2017-Oct-17 01:38N 35°35' W 006°43'110.8
2017-Oct-17 01:30N 35°36' W 006°42'2811.1
2017-Oct-16 22:58N 35°55' W 006°17'2011.9
2017-Oct-16 21:20N 35°58' W 005°53'413.4
2017-Oct-16 21:00N 35°58' W 005°47'713.4
2017-Oct-16 20:30N 35°58' W 005°39'612.2
2017-Oct-16 20:00N 35°59' W 005°32'611.1
2017-Oct-16 19:30N 36°01' W 005°25'5 9.9
2017-Oct-16 19:00N 36°04' W 005°20'3 6.0
2017-Oct-16 18:30N 36°06' W 005°22'0 0.2
2017-Oct-16 18:00N 36°06' W 005°22'0 0.3
2017-Oct-16 17:18N 36°06' W 005°22'0 0.1
2017-Oct-16 17:00N 36°06' W 005°22'0 0.1
2017-Oct-16 16:30N 36°06' W 005°22'0 0.0
2017-Oct-16 14:18N 36°06' W 005°22'0 0.0
2017-Oct-16 13:30N 36°06' W 005°22'0 0.1
2017-Oct-16 12:36N 36°06' W 005°22'0 0.1
2017-Oct-16 12:30N 36°06' W 005°22'0 0.1
2017-Oct-16 12:00N 36°06' W 005°22'0 0.1
2017-Oct-16 11:30N 36°06' W 005°22'0 0.1
2017-Oct-16 11:00N 36°06' W 005°22'0 0.0
2017-Oct-16 10:30N 36°06' W 005°22'0 0.1
2017-Oct-16 10:00N 36°06' W 005°22'0 0.0
2017-Oct-16 09:30N 36°06' W 005°22'0 0.5
2017-Oct-16 09:00N 36°06' W 005°22'2 3.5
2017-Oct-16 08:30N 36°06' W 005°20'4 7.1
2017-Oct-16 08:00N 36°07' W 005°15'1 0.7
2017-Oct-16 07:14N 36°07' W 005°15'1 2.5
2017-Oct-16 07:00N 36°07' W 005°15'5 9.1
2017-Oct-16 06:30N 36°02' W 005°15'4 8.3
2017-Oct-16 06:00N 35°59' W 005°12'1 1.2
2017-Oct-16 05:21N 35°60' W 005°11'0 0.6
2017-Oct-16 05:00N 35°60' W 005°11'0 0.5
2017-Oct-16 04:29N 35°60' W 005°11'0 0.7
2017-Oct-16 04:00N 36°00' W 005°11'0 0.8
2017-Oct-16 03:30N 36°00' W 005°10'1 1.2
2017-Oct-16 03:00N 36°01' W 005°10'1 1.5
2017-Oct-16 02:30N 36°02' W 005°10'1 1.4
2017-Oct-16 02:00N 36°02' W 005°10'1 1.2
2017-Oct-16 01:30N 36°03' W 005°10'1 1.2
2017-Oct-16 01:00N 36°03' W 005°10'1 1.2
2017-Oct-16 00:30N 36°04' W 005°10'1 1.3
2017-Oct-16 00:00N 36°05' W 005°10'1 1.1
2017-Oct-15 23:30N 36°05' W 005°09'0 1.0
2017-Oct-15 23:00N 36°05' W 005°09'0 1.0
2017-Oct-15 22:30N 36°06' W 005°08'0 0.9
2017-Oct-15 22:00N 36°06' W 005°08'0 0.7
2017-Oct-15 21:30N 36°06' W 005°07'0 0.4
2017-Oct-15 20:59N 36°06' W 005°07'0 0.1
2017-Oct-15 20:28N 36°06' W 005°07'0 0.1
2017-Oct-15 19:59N 36°06' W 005°07'0 0.3
2017-Oct-15 19:28N 36°06' W 005°07'0 0.6
2017-Oct-15 18:59N 36°06' W 005°07'1 0.7
2017-Oct-15 17:30N 36°06' W 005°05'2 0.5
2017-Oct-15 14:00N 36°08' W 005°06'2 3.8
2017-Oct-15 13:30N 36°08' W 005°08'3 5.4
2017-Oct-15 12:59N 36°09' W 005°05'16411.6
2017-Oct-14 22:49N 36°32' W 001°44'411.8
2017-Oct-14 22:30N 36°33' W 001°39'1212.3
2017-Oct-14 21:32N 36°37' W 001°25'012.7
2017-Oct-14 21:30N 36°37' W 001°25'612.6
2017-Oct-14 21:00N 36°39' W 001°17'612.5
2017-Oct-14 20:30N 36°41' W 001°10'612.4
2017-Oct-14 20:00N 36°43' W 001°02'612.6
2017-Oct-14 19:30N 36°45' W 000°55'612.5
2017-Oct-14 19:00N 36°47' W 000°48'612.4
2017-Oct-14 18:31N 36°48' W 000°40'612.3
2017-Oct-14 18:00N 36°50' W 000°33'612.3
2017-Oct-14 17:30N 36°52' W 000°25'612.6
2017-Oct-14 17:00N 36°53' W 000°18'612.5
2017-Oct-14 16:30N 36°55' W 000°10'612.5
2017-Oct-14 16:00N 36°56' W 000°03'612.4
2017-Oct-14 15:30N 36°58' E 000°05'612.5
2017-Oct-14 15:00N 36°60' E 000°12'612.7
2017-Oct-14 14:30N 37°02' E 000°20'612.7
2017-Oct-14 14:00N 37°04' E 000°27'612.7
2017-Oct-14 13:30N 37°07' E 000°34'612.6
2017-Oct-14 13:00N 37°09' E 000°42'912.7
2017-Oct-14 12:19N 37°11' E 000°52'2612.7
2017-Oct-14 10:15N 37°19' E 001°24'312.4
2017-Oct-14 09:59N 37°20' E 001°28'612.4
2017-Oct-14 09:29N 37°22' E 001°36'612.3
2017-Oct-14 09:00N 37°24' E 001°43'612.3
2017-Oct-14 08:30N 37°25' E 001°50'612.2
2017-Oct-14 08:00N 37°27' E 001°58'612.3
2017-Oct-14 07:30N 37°27' E 002°05'612.4
2017-Oct-14 07:00N 37°28' E 002°13'612.4
2017-Oct-14 06:30N 37°28' E 002°21'712.3
2017-Oct-14 05:58N 37°28' E 002°29'612.3
2017-Oct-14 05:27N 37°29' E 002°37'612.2
2017-Oct-14 05:00N 37°29' E 002°44'712.2
2017-Oct-14 04:25N 37°30' E 002°53'2512.1
2017-Oct-14 02:21N 37°32' E 003°24'512.3
2017-Oct-14 01:56N 37°32' E 003°31'712.2
2017-Oct-14 01:22N 37°33' E 003°40'512.2
2017-Oct-14 00:58N 37°33' E 003°46'612.1
2017-Oct-14 00:30N 37°34' E 003°53'612.1
2017-Oct-14 00:00N 37°34' E 004°00'612.2
2017-Oct-13 23:30N 37°34' E 004°08'612.2
2017-Oct-13 23:00N 37°35' E 004°16'611.9
2017-Oct-13 22:30N 37°35' E 004°23'612.0
2017-Oct-13 22:00N 37°36' E 004°31'1312.1
2017-Oct-13 20:57N 37°37' E 004°47'512.0
2017-Oct-13 20:30N 37°37' E 004°54'612.1
2017-Oct-13 20:00N 37°37' E 005°01'612.2
2017-Oct-13 19:30N 37°38' E 005°09'612.3
2017-Oct-13 19:00N 37°38' E 005°17'812.2
2017-Oct-13 18:19N 37°39' E 005°27'412.0
2017-Oct-13 18:00N 37°39' E 005°32'1612.1
2017-Oct-13 16:40N 37°40' E 005°52'212.3
2017-Oct-13 16:30N 37°40' E 005°55'1513.1
2017-Oct-13 15:20N 37°42' E 006°14'613.6
2017-Oct-13 14:52N 37°42' E 006°22'12512.0
2017-Oct-13 04:25N 37°51' E 008°60'611.6
2017-Oct-13 03:55N 37°49' E 009°07'511.6
2017-Oct-13 03:30N 37°48' E 009°13'911.7
2017-Oct-13 02:45N 37°46' E 009°24'411.8
2017-Oct-13 02:27N 37°45' E 009°28'20711.7
2017-Oct-12 08:49N 36°33' E 013°32'412.2
2017-Oct-12 08:30N 36°32' E 013°36'612.3
2017-Oct-12 07:59N 36°30' E 013°44'612.2
2017-Oct-12 07:30N 36°28' E 013°51'612.2
2017-Oct-12 07:00N 36°26' E 013°58'612.1
2017-Oct-12 06:30N 36°23' E 014°05'612.0
2017-Oct-12 06:00N 36°21' E 014°12'611.9
2017-Oct-12 05:30N 36°21' E 014°19'612.0
2017-Oct-12 05:00N 36°20' E 014°26'611.9
2017-Oct-12 04:30N 36°21' E 014°34'611.6
2017-Oct-12 04:00N 36°21' E 014°41'611.8
2017-Oct-12 03:30N 36°22' E 014°48'611.9
2017-Oct-12 03:00N 36°21' E 014°56'44811.1
2017-Oct-10 10:39N 37°28' E 024°09'212.3
2017-Oct-10 10:29N 37°29' E 024°10'612.3
2017-Oct-10 10:00N 37°35' E 024°12'911.9
2017-Oct-10 09:13N 37°43' E 024°19'312.0
2017-Oct-10 08:56N 37°46' E 024°21'13312.3
2017-Oct-09 22:07N 39°44' E 025°38'  

Dump ship's entire track history